sensor_id;sensor_type;location;lat;lon;timestamp;temperature;humidity
108;DHT22;49;48.530;9.200;2023-12-20T00:08:43;12.40;1.00
108;DHT22;49;48.530;9.200;2023-12-20T00:23:40;12.30;1.00
108;DHT22;49;48.530;9.200;2023-12-20T01:08:24;11.50;1.00
108;DHT22;49;48.530;9.200;2023-12-20T01:13:26;11.10;1.00
108;DHT22;49;48.530;9.200;2023-12-20T01:23:19;11.00;1.00
108;DHT22;49;48.530;9.200;2023-12-20T01:48:07;11.30;1.00
108;DHT22;49;48.530;9.200;2023-12-20T01:50:36;11.30;1.00
108;DHT22;49;48.530;9.200;2023-12-20T01:53:04;11.30;1.00
108;DHT22;49;48.530;9.200;2023-12-20T02:00:30;11.10;1.00
108;DHT22;49;48.530;9.200;2023-12-20T02:03:01;10.90;1.00
108;DHT22;49;48.530;9.200;2023-12-20T02:05:30;10.70;1.00
108;DHT22;49;48.530;9.200;2023-12-20T02:10:25;10.30;1.00
108;DHT22;49;48.530;9.200;2023-12-20T02:12:52;10.30;1.00
108;DHT22;49;48.530;9.200;2023-12-20T02:15:19;10.50;1.00
108;DHT22;49;48.530;9.200;2023-12-20T02:17:47;10.50;1.00
108;DHT22;49;48.530;9.200;2023-12-20T02:22:44;10.40;1.00
108;DHT22;49;48.530;9.200;2023-12-20T02:25:11;10.40;1.00
108;DHT22;49;48.530;9.200;2023-12-20T02:27:38;10.70;1.00
108;DHT22;49;48.530;9.200;2023-12-20T02:30:06;10.50;1.00
108;DHT22;49;48.530;9.200;2023-12-20T02:32:33;10.30;1.00
108;DHT22;49;48.530;9.200;2023-12-20T02:35:00;10.30;1.00
108;DHT22;49;48.530;9.200;2023-12-20T02:37:27;10.30;1.00
108;DHT22;49;48.530;9.200;2023-12-20T02:39:54;10.30;1.00
108;DHT22;49;48.530;9.200;2023-12-20T02:44:49;10.60;1.00
108;DHT22;49;48.530;9.200;2023-12-20T02:47:16;10.60;1.00
108;DHT22;49;48.530;9.200;2023-12-20T02:49:42;10.80;1.00
108;DHT22;49;48.530;9.200;2023-12-20T02:52:09;10.70;1.00
108;DHT22;49;48.530;9.200;2023-12-20T02:54:36;10.70;1.00
108;DHT22;49;48.530;9.200;2023-12-20T02:57:04;10.50;1.00
108;DHT22;49;48.530;9.200;2023-12-20T03:02:01;10.40;1.00
108;DHT22;49;48.530;9.200;2023-12-20T03:04:28;10.70;1.00
108;DHT22;49;48.530;9.200;2023-12-20T03:06:55;10.80;1.00
108;DHT22;49;48.530;9.200;2023-12-20T03:11:51;10.70;1.00
108;DHT22;49;48.530;9.200;2023-12-20T03:14:19;10.80;1.00
108;DHT22;49;48.530;9.200;2023-12-20T03:16:47;10.70;1.00
108;DHT22;49;48.530;9.200;2023-12-20T03:19:14;10.80;1.00
108;DHT22;49;48.530;9.200;2023-12-20T03:21:41;10.20;1.00
108;DHT22;49;48.530;9.200;2023-12-20T03:24:08;10.60;1.00
108;DHT22;49;48.530;9.200;2023-12-20T03:26:35;10.60;1.00
108;DHT22;49;48.530;9.200;2023-12-20T03:29:01;10.70;1.00
108;DHT22;49;48.530;9.200;2023-12-20T03:33:59;10.50;1.00
108;DHT22;49;48.530;9.200;2023-12-20T03:38:55;10.30;1.00
108;DHT22;49;48.530;9.200;2023-12-20T03:41:22;10.50;1.00
108;DHT22;49;48.530;9.200;2023-12-20T03:43:49;10.50;1.00
108;DHT22;49;48.530;9.200;2023-12-20T03:46:16;10.60;1.00
108;DHT22;49;48.530;9.200;2023-12-20T03:48:42;10.80;1.00
108;DHT22;49;48.530;9.200;2023-12-20T03:51:11;10.80;1.00
108;DHT22;49;48.530;9.200;2023-12-20T03:53:38;11.00;1.00
108;DHT22;49;48.530;9.200;2023-12-20T03:56:06;11.00;1.00
108;DHT22;49;48.530;9.200;2023-12-20T03:58:33;10.80;1.00
108;DHT22;49;48.530;9.200;2023-12-20T04:01:00;10.70;1.00
108;DHT22;49;48.530;9.200;2023-12-20T04:03:26;10.70;1.00
108;DHT22;49;48.530;9.200;2023-12-20T04:05:54;10.60;1.00
108;DHT22;49;48.530;9.200;2023-12-20T04:08:22;10.70;1.00
108;DHT22;49;48.530;9.200;2023-12-20T04:10:49;10.80;1.00
108;DHT22;49;48.530;9.200;2023-12-20T04:13:16;10.30;1.00
108;DHT22;49;48.530;9.200;2023-12-20T04:15:43;10.30;1.00
108;DHT22;49;48.530;9.200;2023-12-20T04:18:10;10.30;1.00
108;DHT22;49;48.530;9.200;2023-12-20T04:20:36;10.70;1.00
108;DHT22;49;48.530;9.200;2023-12-20T04:23:03;10.30;1.00
108;DHT22;49;48.530;9.200;2023-12-20T04:25:32;10.00;1.00
108;DHT22;49;48.530;9.200;2023-12-20T04:27:59;9.80;2.40
108;DHT22;49;48.530;9.200;2023-12-20T04:30:25;9.80;2.50
108;DHT22;49;48.530;9.200;2023-12-20T04:32:52;9.70;2.90
108;DHT22;49;48.530;9.200;2023-12-20T04:35:19;9.60;3.80
108;DHT22;49;48.530;9.200;2023-12-20T04:37:46;9.50;3.60
108;DHT22;49;48.530;9.200;2023-12-20T04:40:15;9.60;3.80
108;DHT22;49;48.530;9.200;2023-12-20T04:42:43;9.50;4.70
108;DHT22;49;48.530;9.200;2023-12-20T04:45:10;9.70;3.70
108;DHT22;49;48.530;9.200;2023-12-20T04:47:38;9.40;3.90
108;DHT22;49;48.530;9.200;2023-12-20T04:50:06;9.40;5.20
108;DHT22;49;48.530;9.200;2023-12-20T04:52:33;9.60;3.90
108;DHT22;49;48.530;9.200;2023-12-20T04:55:00;9.60;3.40
108;DHT22;49;48.530;9.200;2023-12-20T04:57:27;9.60;4.40
108;DHT22;49;48.530;9.200;2023-12-20T04:59:55;9.80;3.20
108;DHT22;49;48.530;9.200;2023-12-20T05:02:22;9.80;3.10
108;DHT22;49;48.530;9.200;2023-12-20T05:04:49;9.40;3.60
108;DHT22;49;48.530;9.200;2023-12-20T05:07:15;9.50;3.10
108;DHT22;49;48.530;9.200;2023-12-20T05:09:42;9.40;4.20
108;DHT22;49;48.530;9.200;2023-12-20T05:12:09;9.50;3.80
108;DHT22;49;48.530;9.200;2023-12-20T05:14:36;9.20;4.10
108;DHT22;49;48.530;9.200;2023-12-20T05:17:04;9.10;5.40
108;DHT22;49;48.530;9.200;2023-12-20T05:19:31;9.10;4.20
108;DHT22;49;48.530;9.200;2023-12-20T05:22:00;8.90;4.40
108;DHT22;49;48.530;9.200;2023-12-20T05:24:27;9.00;4.20
108;DHT22;49;48.530;9.200;2023-12-20T05:26:54;9.10;3.90
108;DHT22;49;48.530;9.200;2023-12-20T05:29:21;9.10;3.60
108;DHT22;49;48.530;9.200;2023-12-20T05:31:48;9.40;3.30
108;DHT22;49;48.530;9.200;2023-12-20T05:34:16;9.40;3.10
108;DHT22;49;48.530;9.200;2023-12-20T05:36:43;9.40;3.00
108;DHT22;49;48.530;9.200;2023-12-20T05:39:09;9.40;3.70
108;DHT22;49;48.530;9.200;2023-12-20T05:41:36;9.50;3.30
108;DHT22;49;48.530;9.200;2023-12-20T05:44:03;9.20;4.10
108;DHT22;49;48.530;9.200;2023-12-20T05:46:30;9.30;3.50
108;DHT22;49;48.530;9.200;2023-12-20T05:48:57;9.20;3.10
108;DHT22;49;48.530;9.200;2023-12-20T05:51:25;9.20;3.40
108;DHT22;49;48.530;9.200;2023-12-20T05:53:52;9.20;3.50
108;DHT22;49;48.530;9.200;2023-12-20T05:56:18;9.10;3.60
108;DHT22;49;48.530;9.200;2023-12-20T05:58:45;9.00;4.40
108;DHT22;49;48.530;9.200;2023-12-20T06:01:14;8.90;5.40
108;DHT22;49;48.530;9.200;2023-12-20T06:03:43;9.10;4.90
108;DHT22;49;48.530;9.200;2023-12-20T06:06:11;9.00;3.60
108;DHT22;49;48.530;9.200;2023-12-20T06:08:41;8.70;4.80
108;DHT22;49;48.530;9.200;2023-12-20T06:11:09;8.80;5.60
108;DHT22;49;48.530;9.200;2023-12-20T06:13:35;8.90;5.30
108;DHT22;49;48.530;9.200;2023-12-20T06:16:05;8.80;4.70
108;DHT22;49;48.530;9.200;2023-12-20T06:18:31;9.00;5.00
108;DHT22;49;48.530;9.200;2023-12-20T06:20:58;9.10;4.10
108;DHT22;49;48.530;9.200;2023-12-20T06:23:25;9.10;3.60
108;DHT22;49;48.530;9.200;2023-12-20T06:25:54;9.20;4.40
108;DHT22;49;48.530;9.200;2023-12-20T06:28:21;9.20;3.30
108;DHT22;49;48.530;9.200;2023-12-20T06:30:48;9.50;3.70
108;DHT22;49;48.530;9.200;2023-12-20T06:33:15;9.80;2.50
108;DHT22;49;48.530;9.200;2023-12-20T06:35:42;9.70;1.00
108;DHT22;49;48.530;9.200;2023-12-20T06:38:09;9.70;1.40
108;DHT22;49;48.530;9.200;2023-12-20T06:40:36;9.80;1.30
108;DHT22;49;48.530;9.200;2023-12-20T06:43:04;10.20;1.00
108;DHT22;49;48.530;9.200;2023-12-20T06:45:32;10.20;1.00
108;DHT22;49;48.530;9.200;2023-12-20T06:47:59;10.30;1.00
108;DHT22;49;48.530;9.200;2023-12-20T06:50:25;10.40;1.00
108;DHT22;49;48.530;9.200;2023-12-20T06:52:53;10.30;1.00
108;DHT22;49;48.530;9.200;2023-12-20T06:55:19;10.40;1.00
108;DHT22;49;48.530;9.200;2023-12-20T06:57:46;10.60;1.00
108;DHT22;49;48.530;9.200;2023-12-20T07:00:15;10.70;1.00
108;DHT22;49;48.530;9.200;2023-12-20T07:02:44;10.70;1.00
108;DHT22;49;48.530;9.200;2023-12-20T07:05:11;10.50;1.00
108;DHT22;49;48.530;9.200;2023-12-20T07:07:37;10.60;1.00
108;DHT22;49;48.530;9.200;2023-12-20T07:10:05;10.70;1.00
108;DHT22;49;48.530;9.200;2023-12-20T07:12:33;10.50;1.00
108;DHT22;49;48.530;9.200;2023-12-20T07:15:00;10.40;1.00
108;DHT22;49;48.530;9.200;2023-12-20T07:17:28;10.20;1.00
108;DHT22;49;48.530;9.200;2023-12-20T07:19:54;10.30;1.00
108;DHT22;49;48.530;9.200;2023-12-20T07:22:21;10.20;1.00
108;DHT22;49;48.530;9.200;2023-12-20T07:24:48;10.10;1.00
108;DHT22;49;48.530;9.200;2023-12-20T07:27:17;9.90;1.00
108;DHT22;49;48.530;9.200;2023-12-20T07:29:44;9.90;1.00
108;DHT22;49;48.530;9.200;2023-12-20T07:32:11;9.70;1.00
108;DHT22;49;48.530;9.200;2023-12-20T07:34:39;9.70;1.00
108;DHT22;49;48.530;9.200;2023-12-20T07:37:06;10.10;1.00
108;DHT22;49;48.530;9.200;2023-12-20T07:39:35;10.00;1.00
108;DHT22;49;48.530;9.200;2023-12-20T07:42:02;10.20;1.00
108;DHT22;49;48.530;9.200;2023-12-20T07:44:29;10.70;1.00
108;DHT22;49;48.530;9.200;2023-12-20T07:46:56;10.90;1.00
108;DHT22;49;48.530;9.200;2023-12-20T07:49:24;11.10;1.00
108;DHT22;49;48.530;9.200;2023-12-20T07:51:52;11.00;1.00
108;DHT22;49;48.530;9.200;2023-12-20T07:54:19;10.70;1.00
108;DHT22;49;48.530;9.200;2023-12-20T07:56:46;10.60;1.00
108;DHT22;49;48.530;9.200;2023-12-20T07:59:13;10.70;1.00
108;DHT22;49;48.530;9.200;2023-12-20T08:01:40;10.30;1.00
108;DHT22;49;48.530;9.200;2023-12-20T08:04:07;10.00;1.00
108;DHT22;49;48.530;9.200;2023-12-20T08:06:34;10.00;1.00
108;DHT22;49;48.530;9.200;2023-12-20T08:09:03;10.20;1.00
108;DHT22;49;48.530;9.200;2023-12-20T08:11:29;10.20;1.00
108;DHT22;49;48.530;9.200;2023-12-20T08:13:56;10.30;1.00
108;DHT22;49;48.530;9.200;2023-12-20T08:16:23;10.40;1.00
108;DHT22;49;48.530;9.200;2023-12-20T08:18:50;10.50;1.00
108;DHT22;49;48.530;9.200;2023-12-20T08:21:17;10.50;1.00
108;DHT22;49;48.530;9.200;2023-12-20T08:23:46;10.30;1.00
108;DHT22;49;48.530;9.200;2023-12-20T08:26:19;10.00;1.00
108;DHT22;49;48.530;9.200;2023-12-20T08:28:47;9.60;1.40
108;DHT22;49;48.530;9.200;2023-12-20T08:31:14;9.90;2.10
108;DHT22;49;48.530;9.200;2023-12-20T08:33:42;10.10;1.00
108;DHT22;49;48.530;9.200;2023-12-20T08:36:09;10.20;1.00
108;DHT22;49;48.530;9.200;2023-12-20T08:38:36;10.40;1.00
108;DHT22;49;48.530;9.200;2023-12-20T08:41:03;10.50;1.00
108;DHT22;49;48.530;9.200;2023-12-20T08:43:34;10.60;1.00
108;DHT22;49;48.530;9.200;2023-12-20T08:46:01;10.90;1.00
108;DHT22;49;48.530;9.200;2023-12-20T08:48:28;10.80;1.00
108;DHT22;49;48.530;9.200;2023-12-20T08:50:55;10.80;1.00
108;DHT22;49;48.530;9.200;2023-12-20T08:53:22;10.90;1.00
108;DHT22;49;48.530;9.200;2023-12-20T08:55:49;11.10;1.00
108;DHT22;49;48.530;9.200;2023-12-20T08:58:15;11.30;1.00
108;DHT22;49;48.530;9.200;2023-12-20T09:00:44;11.60;1.00
108;DHT22;49;48.530;9.200;2023-12-20T09:03:11;11.60;1.00
108;DHT22;49;48.530;9.200;2023-12-20T09:05:38;11.60;1.00
108;DHT22;49;48.530;9.200;2023-12-20T09:08:05;11.80;1.00
108;DHT22;49;48.530;9.200;2023-12-20T09:10:33;11.90;1.00
108;DHT22;49;48.530;9.200;2023-12-20T09:13:00;12.00;1.00
108;DHT22;49;48.530;9.200;2023-12-20T09:15:27;12.10;1.00
108;DHT22;49;48.530;9.200;2023-12-20T09:17:57;11.70;1.00
108;DHT22;49;48.530;9.200;2023-12-20T09:20:24;11.40;1.00
108;DHT22;49;48.530;9.200;2023-12-20T09:22:51;11.20;1.00
108;DHT22;49;48.530;9.200;2023-12-20T09:25:18;11.00;1.00
108;DHT22;49;48.530;9.200;2023-12-20T09:27:45;10.30;1.00
108;DHT22;49;48.530;9.200;2023-12-20T09:30:12;10.30;1.00
108;DHT22;49;48.530;9.200;2023-12-20T09:32:39;10.10;1.00
108;DHT22;49;48.530;9.200;2023-12-20T09:35:08;9.80;1.00
108;DHT22;49;48.530;9.200;2023-12-20T09:37:35;10.10;1.00
108;DHT22;49;48.530;9.200;2023-12-20T09:40:02;10.10;1.00
108;DHT22;49;48.530;9.200;2023-12-20T09:42:36;10.10;1.00
108;DHT22;49;48.530;9.200;2023-12-20T09:45:08;10.10;1.00
108;DHT22;49;48.530;9.200;2023-12-20T09:47:36;10.00;1.00
108;DHT22;49;48.530;9.200;2023-12-20T09:50:03;10.30;1.00
108;DHT22;49;48.530;9.200;2023-12-20T09:52:33;10.30;1.00
108;DHT22;49;48.530;9.200;2023-12-20T09:55:01;10.50;1.00
108;DHT22;49;48.530;9.200;2023-12-20T09:57:31;10.60;1.00
108;DHT22;49;48.530;9.200;2023-12-20T09:59:58;10.60;1.00
108;DHT22;49;48.530;9.200;2023-12-20T10:02:25;10.30;1.00
108;DHT22;49;48.530;9.200;2023-12-20T10:04:54;9.90;1.00
108;DHT22;49;48.530;9.200;2023-12-20T10:07:21;9.80;1.00
108;DHT22;49;48.530;9.200;2023-12-20T10:09:51;9.70;1.00
108;DHT22;49;48.530;9.200;2023-12-20T10:12:20;9.80;1.00
108;DHT22;49;48.530;9.200;2023-12-20T10:14:47;9.70;1.00
108;DHT22;49;48.530;9.200;2023-12-20T10:17:14;10.10;1.00
108;DHT22;49;48.530;9.200;2023-12-20T10:19:43;10.10;1.00
108;DHT22;49;48.530;9.200;2023-12-20T10:22:10;9.80;1.00
108;DHT22;49;48.530;9.200;2023-12-20T10:24:37;10.00;1.00
108;DHT22;49;48.530;9.200;2023-12-20T10:27:08;9.90;1.00
108;DHT22;49;48.530;9.200;2023-12-20T10:29:35;9.80;1.00
108;DHT22;49;48.530;9.200;2023-12-20T10:32:21;9.90;1.00
108;DHT22;49;48.530;9.200;2023-12-20T10:34:48;9.80;1.00
108;DHT22;49;48.530;9.200;2023-12-20T10:37:15;9.80;1.00
108;DHT22;49;48.530;9.200;2023-12-20T10:39:42;9.70;1.00
108;DHT22;49;48.530;9.200;2023-12-20T10:42:12;10.00;1.00
108;DHT22;49;48.530;9.200;2023-12-20T10:44:40;9.90;1.00
108;DHT22;49;48.530;9.200;2023-12-20T10:47:07;10.00;1.00
108;DHT22;49;48.530;9.200;2023-12-20T10:49:36;10.30;1.00
108;DHT22;49;48.530;9.200;2023-12-20T10:52:06;10.30;1.00
108;DHT22;49;48.530;9.200;2023-12-20T10:54:33;10.10;1.00
108;DHT22;49;48.530;9.200;2023-12-20T10:57:00;10.30;1.00
108;DHT22;49;48.530;9.200;2023-12-20T10:59:33;10.50;1.00
108;DHT22;49;48.530;9.200;2023-12-20T11:02:02;10.30;1.00
108;DHT22;49;48.530;9.200;2023-12-20T11:05:13;10.60;1.00
108;DHT22;49;48.530;9.200;2023-12-20T11:07:33;10.50;1.00
108;DHT22;49;48.530;9.200;2023-12-20T11:10:12;10.40;1.00
108;DHT22;49;48.530;9.200;2023-12-20T11:12:47;10.70;1.00
108;DHT22;49;48.530;9.200;2023-12-20T11:15:17;10.70;1.00
108;DHT22;49;48.530;9.200;2023-12-20T11:17:45;10.50;1.00
108;DHT22;49;48.530;9.200;2023-12-20T11:20:12;10.90;1.00
108;DHT22;49;48.530;9.200;2023-12-20T11:22:51;10.90;1.00
108;DHT22;49;48.530;9.200;2023-12-20T11:25:18;11.00;1.00
108;DHT22;49;48.530;9.200;2023-12-20T11:28:09;10.70;1.00
108;DHT22;49;48.530;9.200;2023-12-20T11:30:46;10.70;1.00
108;DHT22;49;48.530;9.200;2023-12-20T11:33:14;10.70;1.00
108;DHT22;49;48.530;9.200;2023-12-20T11:35:41;10.80;1.00
108;DHT22;49;48.530;9.200;2023-12-20T11:38:08;10.20;1.00
108;DHT22;49;48.530;9.200;2023-12-20T11:40:36;9.80;1.00
108;DHT22;49;48.530;9.200;2023-12-20T11:43:04;9.70;1.00
108;DHT22;49;48.530;9.200;2023-12-20T11:45:31;9.90;1.00
108;DHT22;49;48.530;9.200;2023-12-20T11:48:00;10.20;1.00
108;DHT22;49;48.530;9.200;2023-12-20T11:50:28;9.90;1.00
108;DHT22;49;48.530;9.200;2023-12-20T11:52:55;9.80;1.00
108;DHT22;49;48.530;9.200;2023-12-20T11:55:23;9.70;1.00
108;DHT22;49;48.530;9.200;2023-12-20T11:57:50;9.40;1.00
108;DHT22;49;48.530;9.200;2023-12-20T12:00:18;9.60;1.00
108;DHT22;49;48.530;9.200;2023-12-20T12:02:56;9.60;1.00
108;DHT22;49;48.530;9.200;2023-12-20T12:05:24;9.60;1.00
108;DHT22;49;48.530;9.200;2023-12-20T12:07:51;9.50;1.00
108;DHT22;49;48.530;9.200;2023-12-20T12:10:18;9.40;1.00
108;DHT22;49;48.530;9.200;2023-12-20T12:12:46;9.10;1.00
108;DHT22;49;48.530;9.200;2023-12-20T12:15:14;9.40;1.00
108;DHT22;49;48.530;9.200;2023-12-20T12:17:41;9.60;1.00
108;DHT22;49;48.530;9.200;2023-12-20T12:20:08;9.80;1.00
108;DHT22;49;48.530;9.200;2023-12-20T12:22:37;10.10;1.00
108;DHT22;49;48.530;9.200;2023-12-20T12:25:11;10.10;1.00
108;DHT22;49;48.530;9.200;2023-12-20T12:27:40;10.40;1.00
108;DHT22;49;48.530;9.200;2023-12-20T12:30:09;10.40;1.00
108;DHT22;49;48.530;9.200;2023-12-20T12:32:38;10.50;1.00
108;DHT22;49;48.530;9.200;2023-12-20T12:35:06;10.20;1.00
108;DHT22;49;48.530;9.200;2023-12-20T12:37:34;10.20;1.00
108;DHT22;49;48.530;9.200;2023-12-20T12:40:04;10.20;1.00
108;DHT22;49;48.530;9.200;2023-12-20T12:42:31;10.10;1.00
108;DHT22;49;48.530;9.200;2023-12-20T12:44:58;10.10;1.00
108;DHT22;49;48.530;9.200;2023-12-20T12:47:25;10.20;1.00
108;DHT22;49;48.530;9.200;2023-12-20T12:49:52;10.20;1.00
108;DHT22;49;48.530;9.200;2023-12-20T12:52:19;10.30;1.00
108;DHT22;49;48.530;9.200;2023-12-20T12:54:46;10.40;1.00
108;DHT22;49;48.530;9.200;2023-12-20T12:57:15;10.20;1.00
108;DHT22;49;48.530;9.200;2023-12-20T12:59:43;9.80;1.00
108;DHT22;49;48.530;9.200;2023-12-20T13:02:20;9.90;1.00
108;DHT22;49;48.530;9.200;2023-12-20T13:04:49;10.20;1.00
108;DHT22;49;48.530;9.200;2023-12-20T13:07:16;9.90;1.00
108;DHT22;49;48.530;9.200;2023-12-20T13:09:42;9.60;1.00
108;DHT22;49;48.530;9.200;2023-12-20T13:12:09;9.60;1.00
108;DHT22;49;48.530;9.200;2023-12-20T13:14:38;9.80;1.00
108;DHT22;49;48.530;9.200;2023-12-20T13:17:06;9.70;1.00
108;DHT22;49;48.530;9.200;2023-12-20T13:19:33;9.50;1.00
108;DHT22;49;48.530;9.200;2023-12-20T13:24:30;9.40;1.00
108;DHT22;49;48.530;9.200;2023-12-20T13:26:58;9.40;1.00
108;DHT22;49;48.530;9.200;2023-12-20T13:31:55;9.80;1.00
108;DHT22;49;48.530;9.200;2023-12-20T13:34:23;9.70;1.00
108;DHT22;49;48.530;9.200;2023-12-20T13:36:50;9.70;1.00
108;DHT22;49;48.530;9.200;2023-12-20T13:39:17;9.50;1.00
108;DHT22;49;48.530;9.200;2023-12-20T13:41:44;9.60;1.00
108;DHT22;49;48.530;9.200;2023-12-20T13:44:11;9.80;1.00
108;DHT22;49;48.530;9.200;2023-12-20T13:49:09;10.10;1.00
108;DHT22;49;48.530;9.200;2023-12-20T13:51:36;10.20;1.00
108;DHT22;49;48.530;9.200;2023-12-20T13:54:04;9.90;1.00
108;DHT22;49;48.530;9.200;2023-12-20T13:56:31;9.80;1.00
108;DHT22;49;48.530;9.200;2023-12-20T13:58:58;9.90;1.00
108;DHT22;49;48.530;9.200;2023-12-20T14:01:26;9.60;1.00
108;DHT22;49;48.530;9.200;2023-12-20T14:03:53;9.70;1.00
108;DHT22;49;48.530;9.200;2023-12-20T14:06:21;9.90;1.00
108;DHT22;49;48.530;9.200;2023-12-20T14:11:17;9.80;1.00
108;DHT22;49;48.530;9.200;2023-12-20T14:13:44;9.30;1.00
108;DHT22;49;48.530;9.200;2023-12-20T14:16:12;9.50;1.00
108;DHT22;49;48.530;9.200;2023-12-20T14:18:40;9.60;1.00
108;DHT22;49;48.530;9.200;2023-12-20T14:21:06;9.90;1.00
108;DHT22;49;48.530;9.200;2023-12-20T14:23:35;9.60;1.00
108;DHT22;49;48.530;9.200;2023-12-20T14:26:02;9.70;1.00
108;DHT22;49;48.530;9.200;2023-12-20T14:28:29;9.50;1.00
108;DHT22;49;48.530;9.200;2023-12-20T14:30:56;9.50;1.00
108;DHT22;49;48.530;9.200;2023-12-20T14:33:23;9.60;1.00
108;DHT22;49;48.530;9.200;2023-12-20T14:35:49;10.00;1.00
108;DHT22;49;48.530;9.200;2023-12-20T14:38:16;10.00;1.00
108;DHT22;49;48.530;9.200;2023-12-20T14:40:45;9.90;1.00
108;DHT22;49;48.530;9.200;2023-12-20T14:43:13;9.80;1.00
108;DHT22;49;48.530;9.200;2023-12-20T14:45:42;9.70;1.00
108;DHT22;49;48.530;9.200;2023-12-20T14:50:38;9.90;1.00
108;DHT22;49;48.530;9.200;2023-12-20T14:53:06;9.90;1.00
108;DHT22;49;48.530;9.200;2023-12-20T14:55:33;9.70;1.00
108;DHT22;49;48.530;9.200;2023-12-20T14:58:02;9.80;1.00
108;DHT22;49;48.530;9.200;2023-12-20T15:00:29;9.80;1.00
108;DHT22;49;48.530;9.200;2023-12-20T15:02:56;10.20;1.00
108;DHT22;49;48.530;9.200;2023-12-20T15:05:23;10.10;1.00
108;DHT22;49;48.530;9.200;2023-12-20T15:07:50;9.90;1.00
108;DHT22;49;48.530;9.200;2023-12-20T15:10:18;9.20;1.00
108;DHT22;49;48.530;9.200;2023-12-20T15:12:45;9.20;1.00
108;DHT22;49;48.530;9.200;2023-12-20T15:15:13;9.30;1.00
108;DHT22;49;48.530;9.200;2023-12-20T15:17:42;9.50;1.00
108;DHT22;49;48.530;9.200;2023-12-20T15:20:10;9.70;1.00
108;DHT22;49;48.530;9.200;2023-12-20T15:22:37;9.90;1.00
108;DHT22;49;48.530;9.200;2023-12-20T15:25:05;10.10;1.00
108;DHT22;49;48.530;9.200;2023-12-20T15:27:33;10.10;1.00
108;DHT22;49;48.530;9.200;2023-12-20T15:30:01;10.20;1.00
108;DHT22;49;48.530;9.200;2023-12-20T15:32:29;10.40;1.00
108;DHT22;49;48.530;9.200;2023-12-20T15:34:56;10.10;1.00
108;DHT22;49;48.530;9.200;2023-12-20T15:37:23;9.90;1.00
108;DHT22;49;48.530;9.200;2023-12-20T15:39:52;9.90;1.00
108;DHT22;49;48.530;9.200;2023-12-20T15:42:18;9.90;1.00
108;DHT22;49;48.530;9.200;2023-12-20T15:44:45;9.80;1.00
108;DHT22;49;48.530;9.200;2023-12-20T15:47:12;9.70;1.00
108;DHT22;49;48.530;9.200;2023-12-20T15:49:40;9.60;1.00
108;DHT22;49;48.530;9.200;2023-12-20T15:52:07;9.10;1.00
108;DHT22;49;48.530;9.200;2023-12-20T15:54:34;8.70;1.00
108;DHT22;49;48.530;9.200;2023-12-20T15:57:04;8.80;1.00
108;DHT22;49;48.530;9.200;2023-12-20T15:59:31;9.40;1.00
108;DHT22;49;48.530;9.200;2023-12-20T16:01:57;9.50;1.00
108;DHT22;49;48.530;9.200;2023-12-20T16:04:24;9.10;1.00
108;DHT22;49;48.530;9.200;2023-12-20T16:06:53;9.10;1.00
108;DHT22;49;48.530;9.200;2023-12-20T16:09:19;9.00;1.00
108;DHT22;49;48.530;9.200;2023-12-20T16:11:46;9.00;1.00
108;DHT22;49;48.530;9.200;2023-12-20T16:14:16;8.90;1.00
108;DHT22;49;48.530;9.200;2023-12-20T16:16:45;8.90;1.00
108;DHT22;49;48.530;9.200;2023-12-20T16:19:12;8.80;1.00
108;DHT22;49;48.530;9.200;2023-12-20T16:21:39;8.40;1.00
108;DHT22;49;48.530;9.200;2023-12-20T16:24:08;8.60;1.00
108;DHT22;49;48.530;9.200;2023-12-20T16:26:34;9.00;1.00
108;DHT22;49;48.530;9.200;2023-12-20T16:29:01;8.70;1.00
108;DHT22;49;48.530;9.200;2023-12-20T16:31:28;8.70;1.00
108;DHT22;49;48.530;9.200;2023-12-20T16:33:54;8.60;1.00
108;DHT22;49;48.530;9.200;2023-12-20T16:36:21;8.70;1.00
108;DHT22;49;48.530;9.200;2023-12-20T16:38:48;8.80;1.00
108;DHT22;49;48.530;9.200;2023-12-20T16:41:16;8.70;1.00
108;DHT22;49;48.530;9.200;2023-12-20T16:43:43;8.20;1.00
108;DHT22;49;48.530;9.200;2023-12-20T16:46:10;8.30;1.00
108;DHT22;49;48.530;9.200;2023-12-20T16:48:37;8.60;1.00
108;DHT22;49;48.530;9.200;2023-12-20T16:51:04;8.60;1.00
108;DHT22;49;48.530;9.200;2023-12-20T16:53:31;8.40;1.00
108;DHT22;49;48.530;9.200;2023-12-20T16:55:58;8.30;1.00
108;DHT22;49;48.530;9.200;2023-12-20T16:58:27;8.50;1.00
108;DHT22;49;48.530;9.200;2023-12-20T17:00:54;8.50;1.00
108;DHT22;49;48.530;9.200;2023-12-20T17:03:21;8.30;1.00
108;DHT22;49;48.530;9.200;2023-12-20T17:05:50;8.50;1.00
108;DHT22;49;48.530;9.200;2023-12-20T17:08:17;8.50;1.00
108;DHT22;49;48.530;9.200;2023-12-20T17:10:44;8.60;1.00
108;DHT22;49;48.530;9.200;2023-12-20T17:13:11;8.80;1.00
108;DHT22;49;48.530;9.200;2023-12-20T17:15:39;8.50;1.00
108;DHT22;49;48.530;9.200;2023-12-20T17:18:07;8.20;1.00
108;DHT22;49;48.530;9.200;2023-12-20T17:20:33;8.40;1.00
108;DHT22;49;48.530;9.200;2023-12-20T17:23:00;8.60;1.00
108;DHT22;49;48.530;9.200;2023-12-20T17:25:28;8.60;1.00
108;DHT22;49;48.530;9.200;2023-12-20T17:27:55;8.40;1.00
108;DHT22;49;48.530;9.200;2023-12-20T17:30:23;8.80;1.00
108;DHT22;49;48.530;9.200;2023-12-20T17:32:51;8.60;1.00
108;DHT22;49;48.530;9.200;2023-12-20T17:35:18;8.70;1.00
108;DHT22;49;48.530;9.200;2023-12-20T17:37:45;8.90;1.00
108;DHT22;49;48.530;9.200;2023-12-20T17:40:12;8.70;1.00
108;DHT22;49;48.530;9.200;2023-12-20T17:42:40;8.80;1.00
108;DHT22;49;48.530;9.200;2023-12-20T17:45:07;9.10;1.00
108;DHT22;49;48.530;9.200;2023-12-20T17:47:34;8.70;1.00
108;DHT22;49;48.530;9.200;2023-12-20T17:50:02;7.90;1.00
108;DHT22;49;48.530;9.200;2023-12-20T17:52:29;7.90;1.00
108;DHT22;49;48.530;9.200;2023-12-20T17:54:55;7.60;1.00
108;DHT22;49;48.530;9.200;2023-12-20T17:57:22;7.50;1.00
108;DHT22;49;48.530;9.200;2023-12-20T17:59:50;7.60;1.00
108;DHT22;49;48.530;9.200;2023-12-20T18:02:16;7.50;1.00
108;DHT22;49;48.530;9.200;2023-12-20T18:04:44;7.40;1.00
108;DHT22;49;48.530;9.200;2023-12-20T18:07:12;7.70;1.00
108;DHT22;49;48.530;9.200;2023-12-20T18:09:39;8.00;1.00
108;DHT22;49;48.530;9.200;2023-12-20T18:12:06;8.10;1.00
108;DHT22;49;48.530;9.200;2023-12-20T18:14:33;8.30;1.00
108;DHT22;49;48.530;9.200;2023-12-20T18:17:01;8.60;1.00
108;DHT22;49;48.530;9.200;2023-12-20T18:19:28;8.60;1.00
108;DHT22;49;48.530;9.200;2023-12-20T18:21:55;8.70;1.00
108;DHT22;49;48.530;9.200;2023-12-20T18:24:24;8.50;1.00
108;DHT22;49;48.530;9.200;2023-12-20T18:26:51;8.40;1.00
108;DHT22;49;48.530;9.200;2023-12-20T18:29:18;8.60;1.00
108;DHT22;49;48.530;9.200;2023-12-20T18:31:45;8.80;1.00
108;DHT22;49;48.530;9.200;2023-12-20T18:34:12;8.80;1.00
108;DHT22;49;48.530;9.200;2023-12-20T18:36:39;8.90;1.00
108;DHT22;49;48.530;9.200;2023-12-20T18:39:06;8.80;1.00
108;DHT22;49;48.530;9.200;2023-12-20T18:41:35;8.80;1.00
108;DHT22;49;48.530;9.200;2023-12-20T18:44:02;8.90;1.00
108;DHT22;49;48.530;9.200;2023-12-20T18:46:29;8.80;1.00
108;DHT22;49;48.530;9.200;2023-12-20T18:48:56;8.70;1.00
108;DHT22;49;48.530;9.200;2023-12-20T18:51:23;8.40;1.00
108;DHT22;49;48.530;9.200;2023-12-20T18:53:49;8.60;1.00
108;DHT22;49;48.530;9.200;2023-12-20T18:56:18;8.80;1.00
108;DHT22;49;48.530;9.200;2023-12-20T18:58:46;8.70;1.00
108;DHT22;49;48.530;9.200;2023-12-20T19:01:13;8.80;1.00
108;DHT22;49;48.530;9.200;2023-12-20T19:03:40;9.00;1.00
108;DHT22;49;48.530;9.200;2023-12-20T19:06:07;9.20;1.00
108;DHT22;49;48.530;9.200;2023-12-20T19:08:34;9.20;1.00
108;DHT22;49;48.530;9.200;2023-12-20T19:11:02;9.00;1.00
108;DHT22;49;48.530;9.200;2023-12-20T19:13:28;9.10;1.00
108;DHT22;49;48.530;9.200;2023-12-20T19:15:59;9.30;1.00
108;DHT22;49;48.530;9.200;2023-12-20T19:18:26;9.20;1.00
108;DHT22;49;48.530;9.200;2023-12-20T19:20:53;9.10;1.00
108;DHT22;49;48.530;9.200;2023-12-20T19:23:20;9.10;1.00
108;DHT22;49;48.530;9.200;2023-12-20T19:25:47;9.00;1.00
108;DHT22;49;48.530;9.200;2023-12-20T19:28:14;9.00;1.00
108;DHT22;49;48.530;9.200;2023-12-20T19:30:41;9.00;1.00